sensor_id;sensor_type;location;lat;lon;timestamp;pressure;altitude;pressure_sealevel;temperature;humidity
53270;BME280;39159;45.634;9.420;2023-04-19T00:00:26;98970.31;;;11.68;68.17
53270;BME280;39159;45.634;9.420;2023-04-19T00:02:52;98970.47;;;11.71;67.82
53270;BME280;39159;45.634;9.420;2023-04-19T00:05:18;98968.25;;;11.73;67.59
53270;BME280;39159;45.634;9.420;2023-04-19T00:07:44;98972.47;;;11.79;67.12
53270;BME280;39159;45.634;9.420;2023-04-19T00:10:11;98968.63;;;11.80;66.89
53270;BME280;39159;45.634;9.420;2023-04-19T00:12:36;98961.03;;;11.77;66.78
53270;BME280;39159;45.634;9.420;2023-04-19T00:15:02;98963.75;;;11.77;66.79
53270;BME280;39159;45.634;9.420;2023-04-19T00:17:27;98967.78;;;11.80;66.45
53270;BME280;39159;45.634;9.420;2023-04-19T00:19:54;98963.94;;;11.81;66.53
53270;BME280;39159;45.634;9.420;2023-04-19T00:22:20;98959.59;;;11.80;66.67
53270;BME280;39159;45.634;9.420;2023-04-19T00:24:46;98958.78;;;11.79;66.78
53270;BME280;39159;45.634;9.420;2023-04-19T00:27:11;98962.31;;;11.80;66.56
53270;BME280;39159;45.634;9.420;2023-04-19T00:29:37;98962.31;;;11.80;66.28
53270;BME280;39159;45.634;9.420;2023-04-19T00:32:02;98954.25;;;11.75;66.24
53270;BME280;39159;45.634;9.420;2023-04-19T00:34:30;98957.31;;;11.73;66.41
53270;BME280;39159;45.634;9.420;2023-04-19T00:36:55;98957.31;;;11.73;66.50
53270;BME280;39159;45.634;9.420;2023-04-19T00:39:21;98956.19;;;11.74;66.38
53270;BME280;39159;45.634;9.420;2023-04-19T00:41:46;98949.09;;;11.73;66.68
53270;BME280;39159;45.634;9.420;2023-04-19T00:44:12;98948.59;;;11.71;66.79
53270;BME280;39159;45.634;9.420;2023-04-19T00:46:37;98945.53;;;11.64;66.84
53270;BME280;39159;45.634;9.420;2023-04-19T00:49:03;98952.75;;;11.60;67.64
53270;BME280;39159;45.634;9.420;2023-04-19T00:51:29;98947.44;;;11.55;67.68
53270;BME280;39159;45.634;9.420;2023-04-19T00:53:56;98953.03;;;11.50;68.40
53270;BME280;39159;45.634;9.420;2023-04-19T00:56:22;98948.03;;;11.43;68.60
53270;BME280;39159;45.634;9.420;2023-04-19T00:58:50;98943.31;;;11.35;69.02
53270;BME280;39159;45.634;9.420;2023-04-19T01:01:17;98941.81;;;11.29;69.07
53270;BME280;39159;45.634;9.420;2023-04-19T01:03:45;98934.41;;;11.20;69.75
53270;BME280;39159;45.634;9.420;2023-04-19T01:06:10;98940.31;;;11.14;70.14
53270;BME280;39159;45.634;9.420;2023-04-19T01:08:36;98944.56;;;11.06;70.56
53270;BME280;39159;45.634;9.420;2023-04-19T01:11:01;98937.50;;;11.05;70.98
53270;BME280;39159;45.634;9.420;2023-04-19T01:13:27;98931.84;;;11.02;71.33
53270;BME280;39159;45.634;9.420;2023-04-19T01:15:54;98937.50;;;11.05;71.14
53270;BME280;39159;45.634;9.420;2023-04-19T01:18:20;98933.78;;;11.01;71.72
53270;BME280;39159;45.634;9.420;2023-04-19T01:20:46;98935.38;;;11.02;71.71
53270;BME280;39159;45.634;9.420;2023-04-19T01:23:12;98933.44;;;11.03;71.68
53270;BME280;39159;45.634;9.420;2023-04-19T01:25:37;98933.59;;;10.97;72.02
53270;BME280;39159;45.634;9.420;2023-04-19T01:28:03;98934.72;;;10.96;72.70
53270;BME280;39159;45.634;9.420;2023-04-19T01:30:29;98931.78;;;10.93;72.89
53270;BME280;39159;45.634;9.420;2023-04-19T01:32:54;98927.91;;;10.85;73.71
53270;BME280;39159;45.634;9.420;2023-04-19T01:35:20;98931.84;;;10.79;74.18
53270;BME280;39159;45.634;9.420;2023-04-19T01:37:45;98924.09;;;10.72;75.13
53270;BME280;39159;45.634;9.420;2023-04-19T01:40:11;98919.25;;;10.69;75.33
53270;BME280;39159;45.634;9.420;2023-04-19T01:42:37;98923.31;;;10.72;75.31
53270;BME280;39159;45.634;9.420;2023-04-19T01:45:02;98918.06;;;10.62;76.06
53270;BME280;39159;45.634;9.420;2023-04-19T01:47:28;98918.69;;;10.58;76.46
53270;BME280;39159;45.634;9.420;2023-04-19T01:49:54;98913.84;;;10.55;76.53
53270;BME280;39159;45.634;9.420;2023-04-19T01:52:19;98917.81;;;10.49;76.87
53270;BME280;39159;45.634;9.420;2023-04-19T01:54:45;98909.75;;;10.44;77.03
53270;BME280;39159;45.634;9.420;2023-04-19T01:57:10;98906.84;;;10.41;77.45
53270;BME280;39159;45.634;9.420;2023-04-19T01:59:36;98900.88;;;10.39;77.96
53270;BME280;39159;45.634;9.420;2023-04-19T02:02:01;98905.34;;;10.34;77.88
53270;BME280;39159;45.634;9.420;2023-04-19T02:04:26;98903.53;;;10.30;78.42
53270;BME280;39159;45.634;9.420;2023-04-19T02:06:52;98909.25;;;10.28;78.20
53270;BME280;39159;45.634;9.420;2023-04-19T02:09:17;98903.28;;;10.26;78.17
53270;BME280;39159;45.634;9.420;2023-04-19T02:11:43;98897.84;;;10.26;78.02
53270;BME280;39159;45.634;9.420;2023-04-19T02:14:08;98904.63;;;10.29;77.42
53270;BME280;39159;45.634;9.420;2023-04-19T02:16:34;98904.63;;;10.29;77.51
53270;BME280;39159;45.634;9.420;2023-04-19T02:18:59;98905.13;;;10.31;76.91
53270;BME280;39159;45.634;9.420;2023-04-19T02:21:25;98900.19;;;10.33;76.95
53270;BME280;39159;45.634;9.420;2023-04-19T02:23:51;98898.06;;;10.30;77.18
53270;BME280;39159;45.634;9.420;2023-04-19T02:26:17;98900.00;;;10.29;77.16
53270;BME280;39159;45.634;9.420;2023-04-19T02:28:42;98900.00;;;10.29;77.27
53270;BME280;39159;45.634;9.420;2023-04-19T02:31:08;98899.16;;;10.29;77.54
53270;BME280;39159;45.634;9.420;2023-04-19T02:33:34;98895.09;;;10.26;77.81
53270;BME280;39159;45.634;9.420;2023-04-19T02:35:59;98892.63;;;10.30;77.00
53270;BME280;39159;45.634;9.420;2023-04-19T02:38:25;98889.34;;;10.28;77.33
53270;BME280;39159;45.634;9.420;2023-04-19T02:40:50;98892.09;;;10.28;77.45
53270;BME280;39159;45.634;9.420;2023-04-19T02:43:15;98888.84;;;10.26;77.39
53270;BME280;39159;45.634;9.420;2023-04-19T02:45:41;98888.84;;;10.26;77.43
53270;BME280;39159;45.634;9.420;2023-04-19T02:48:06;98893.50;;;10.25;77.78
53270;BME280;39159;45.634;9.420;2023-04-19T02:50:32;98882.91;;;10.24;77.83
53270;BME280;39159;45.634;9.420;2023-04-19T02:52:57;98878.88;;;10.21;77.90
53270;BME280;39159;45.634;9.420;2023-04-19T02:55:23;98881.38;;;10.17;78.12
53270;BME280;39159;45.634;9.420;2023-04-19T02:57:48;98878.38;;;10.19;78.43
53270;BME280;39159;45.634;9.420;2023-04-19T03:00:14;98879.97;;;10.20;78.25
53270;BME280;39159;45.634;9.420;2023-04-19T03:02:41;98876.94;;;10.22;78.63
53270;BME280;39159;45.634;9.420;2023-04-19T03:05:08;98880.16;;;10.24;79.06
53270;BME280;39159;45.634;9.420;2023-04-19T03:07:34;98871.47;;;10.22;79.22
53270;BME280;39159;45.634;9.420;2023-04-19T03:10:00;98875.84;;;10.23;78.97
53270;BME280;39159;45.634;9.420;2023-04-19T03:12:26;98871.47;;;10.22;78.88
53270;BME280;39159;45.634;9.420;2023-04-19T03:14:51;98878.56;;;10.23;78.73
53270;BME280;39159;45.634;9.420;2023-04-19T03:17:17;98874.72;;;10.24;79.10
53270;BME280;39159;45.634;9.420;2023-04-19T03:19:42;98873.91;;;10.23;78.58
53270;BME280;39159;45.634;9.420;2023-04-19T03:22:08;98869.25;;;10.24;79.29
53270;BME280;39159;45.634;9.420;2023-04-19T03:24:34;98876.44;;;10.20;79.78
53270;BME280;39159;45.634;9.420;2023-04-19T03:26:59;98874.34;;;10.16;79.27
53270;BME280;39159;45.634;9.420;2023-04-19T03:29:25;98872.13;;;10.19;79.67
53270;BME280;39159;45.634;9.420;2023-04-19T03:31:50;98865.53;;;10.20;79.85
53270;BME280;39159;45.634;9.420;2023-04-19T03:34:16;98869.38;;;10.19;79.21
53270;BME280;39159;45.634;9.420;2023-04-19T03:36:42;98862.81;;;10.20;79.79
53270;BME280;39159;45.634;9.420;2023-04-19T03:39:07;98865.81;;;10.18;79.50
53270;BME280;39159;45.634;9.420;2023-04-19T03:41:33;98868.25;;;10.20;79.19
53270;BME280;39159;45.634;9.420;2023-04-19T03:43:58;98859.91;;;10.16;79.29
53270;BME280;39159;45.634;9.420;2023-04-19T03:46:24;98869.47;;;10.13;79.83
53270;BME280;39159;45.634;9.420;2023-04-19T03:48:50;98859.69;;;10.12;79.98
53270;BME280;39159;45.634;9.420;2023-04-19T03:51:16;98858.41;;;10.10;79.86
53270;BME280;39159;45.634;9.420;2023-04-19T03:53:42;98863.53;;;10.11;80.36
53270;BME280;39159;45.634;9.420;2023-04-19T03:56:08;98856.47;;;10.10;80.47
53270;BME280;39159;45.634;9.420;2023-04-19T03:58:33;98856.97;;;10.12;80.22
53270;BME280;39159;45.634;9.420;2023-04-19T04:00:59;98855.47;;;10.06;80.45
53270;BME280;39159;45.634;9.420;2023-04-19T04:03:25;98853.03;;;10.05;80.80
53270;BME280;39159;45.634;9.420;2023-04-19T04:05:51;98852.22;;;10.04;80.78
53270;BME280;39159;45.634;9.420;2023-04-19T04:08:16;98860.41;;;10.04;81.07
53270;BME280;39159;45.634;9.420;2023-04-19T04:10:42;98855.59;;;10.01;81.03
53270;BME280;39159;45.634;9.420;2023-04-19T04:13:07;98856.38;;;10.02;81.47
53270;BME280;39159;45.634;9.420;2023-04-19T04:15:33;98857.69;;;10.04;81.62
53270;BME280;39159;45.634;9.420;2023-04-19T04:17:58;98853.03;;;10.05;81.42
53270;BME280;39159;45.634;9.420;2023-04-19T04:20:24;98850.50;;;10.08;81.01
53270;BME280;39159;45.634;9.420;2023-04-19T04:22:49;98849.66;;;10.22;85.54
53270;BME280;39159;45.634;9.420;2023-04-19T04:25:15;98847.34;;;10.29;82.47
53270;BME280;39159;45.634;9.420;2023-04-19T04:27:41;98853.31;;;10.31;81.41
53270;BME280;39159;45.634;9.420;2023-04-19T04:30:09;98854.81;;;10.37;82.50
53270;BME280;39159;45.634;9.420;2023-04-19T04:32:36;98857.72;;;10.41;80.64
53270;BME280;39159;45.634;9.420;2023-04-19T04:35:05;98856.72;;;10.36;79.95
53270;BME280;39159;45.634;9.420;2023-04-19T04:37:31;98858.66;;;10.36;79.18
53270;BME280;39159;45.634;9.420;2023-04-19T04:40:00;98857.41;;;10.42;80.32
53270;BME280;39159;45.634;9.420;2023-04-19T04:42:26;98859.34;;;10.42;79.47
53270;BME280;39159;45.634;9.420;2023-04-19T04:44:52;98858.91;;;10.48;79.91
53270;BME280;39159;45.634;9.420;2023-04-19T04:47:22;98861.00;;;10.51;79.05
53270;BME280;39159;45.634;9.420;2023-04-19T04:49:48;98862.78;;;10.56;78.17
53270;BME280;39159;45.634;9.420;2023-04-19T04:52:13;98867.94;;;10.57;77.86
53270;BME280;39159;45.634;9.420;2023-04-19T04:54:39;98859.25;;;10.55;77.50
53270;BME280;39159;45.634;9.420;2023-04-19T04:57:05;98861.91;;;10.61;79.03
53270;BME280;39159;45.634;9.420;2023-04-19T04:59:30;98865.53;;;10.56;76.97
53270;BME280;39159;45.634;9.420;2023-04-19T05:01:56;98868.25;;;10.56;77.45
53270;BME280;39159;45.634;9.420;2023-04-19T05:04:21;98867.94;;;10.57;78.03
53270;BME280;39159;45.634;9.420;2023-04-19T05:06:47;98862.50;;;10.57;77.85
53270;BME280;39159;45.634;9.420;2023-04-19T05:09:12;98864.91;;;10.59;76.93
53270;BME280;39159;45.634;9.420;2023-04-19T05:11:38;98861.41;;;10.58;77.21
53270;BME280;39159;45.634;9.420;2023-04-19T05:14:03;98863.78;;;10.60;77.29
53270;BME280;39159;45.634;9.420;2023-04-19T05:16:29;98865.97;;;10.72;77.93
53270;BME280;39159;45.634;9.420;2023-04-19T05:18:55;98869.38;;;10.77;77.38
53270;BME280;39159;45.634;9.420;2023-04-19T05:21:21;98863.47;;;10.84;75.94
53270;BME280;39159;45.634;9.420;2023-04-19T05:23:46;98856.09;;;10.85;76.01
53270;BME280;39159;45.634;9.420;2023-04-19T05:26:14;98856.13;;;10.93;76.05
53270;BME280;39159;45.634;9.420;2023-04-19T05:28:40;98858.91;;;11.02;75.16
53270;BME280;39159;45.634;9.420;2023-04-19T05:31:10;98861.22;;;11.09;75.26
53270;BME280;39159;45.634;9.420;2023-04-19T05:33:35;98860.41;;;11.08;74.40
53270;BME280;39159;45.634;9.420;2023-04-19T05:36:01;98855.75;;;11.09;74.51
53270;BME280;39159;45.634;9.420;2023-04-19T05:38:26;98858.03;;;11.15;74.28
53270;BME280;39159;45.634;9.420;2023-04-19T05:40:52;98853.84;;;11.18;74.13
53270;BME280;39159;45.634;9.420;2023-04-19T05:43:17;98860.66;;;11.29;74.13
53270;BME280;39159;45.634;9.420;2023-04-19T05:45:43;98853.13;;;11.35;73.08
53270;BME280;39159;45.634;9.420;2023-04-19T05:48:08;98857.00;;;11.43;73.08
53270;BME280;39159;45.634;9.420;2023-04-19T05:50:34;98861.41;;;11.52;72.75
53270;BME280;39159;45.634;9.420;2023-04-19T05:53:01;98849.72;;;11.60;73.02
53270;BME280;39159;45.634;9.420;2023-04-19T05:55:26;98857.28;;;11.72;72.32
53270;BME280;39159;45.634;9.420;2023-04-19T05:57:51;98860.53;;;11.83;72.13
53270;BME280;39159;45.634;9.420;2023-04-19T06:00:17;98854.63;;;11.90;71.27
53270;BME280;39159;45.634;9.420;2023-04-19T06:02:43;98852.06;;;12.02;71.27
53270;BME280;39159;45.634;9.420;2023-04-19T06:05:09;98855.28;;;12.13;70.27
53270;BME280;39159;45.634;9.420;2023-04-19T06:07:34;98851.78;;;12.21;70.02
53270;BME280;39159;45.634;9.420;2023-04-19T06:09:59;98847.09;;;12.30;70.08
53270;BME280;39159;45.634;9.420;2023-04-19T06:12:26;98848.38;;;12.41;69.91
53270;BME280;39159;45.634;9.420;2023-04-19T06:14:51;98861.91;;;12.55;69.29
53270;BME280;39159;45.634;9.420;2023-04-19T06:17:17;98843.88;;;12.63;68.74
53270;BME280;39159;45.634;9.420;2023-04-19T06:19:47;98844.31;;;12.74;69.26
53270;BME280;39159;45.634;9.420;2023-04-19T06:22:13;98841.41;;;12.88;68.26
53270;BME280;39159;45.634;9.420;2023-04-19T06:24:38;98849.09;;;13.03;68.08
53270;BME280;39159;45.634;9.420;2023-04-19T06:27:04;98848.53;;;13.27;68.76
53270;BME280;39159;45.634;9.420;2023-04-19T06:29:29;98847.97;;;13.51;67.14
53270;BME280;39159;45.634;9.420;2023-04-19T06:31:55;98845.78;;;13.74;66.48
53270;BME280;39159;45.634;9.420;2023-04-19T06:34:20;98847.41;;;13.96;66.61
53270;BME280;39159;45.634;9.420;2023-04-19T06:36:46;98845.47;;;14.18;66.29
53270;BME280;39159;45.634;9.420;2023-04-19T06:39:11;98845.81;;;14.37;65.07
53270;BME280;39159;45.634;9.420;2023-04-19T06:41:37;98839.09;;;14.47;65.14
53270;BME280;39159;45.634;9.420;2023-04-19T06:44:02;98848.38;;;14.63;63.90
53270;BME280;39159;45.634;9.420;2023-04-19T06:46:27;98844.63;;;14.68;63.59
53270;BME280;39159;45.634;9.420;2023-04-19T06:48:53;98843.06;;;14.91;62.89
53270;BME280;39159;45.634;9.420;2023-04-19T06:51:18;98847.34;;;15.13;61.83
53270;BME280;39159;45.634;9.420;2023-04-19T06:53:44;98844.03;;;15.20;60.77
53270;BME280;39159;45.634;9.420;2023-04-19T06:56:10;98840.97;;;15.22;61.11
53270;BME280;39159;45.634;9.420;2023-04-19T06:58:37;98851.75;;;15.39;59.88
53270;BME280;39159;45.634;9.420;2023-04-19T07:01:03;98846.38;;;15.55;59.89
53270;BME280;39159;45.634;9.420;2023-04-19T07:03:29;98844.66;;;15.63;58.77
53270;BME280;39159;45.634;9.420;2023-04-19T07:05:54;98847.84;;;15.65;58.50
53270;BME280;39159;45.634;9.420;2023-04-19T07:08:23;98841.47;;;15.61;58.71
53270;BME280;39159;45.634;9.420;2023-04-19T07:10:49;98840.56;;;15.81;58.47
53270;BME280;39159;45.634;9.420;2023-04-19T07:13:14;98839.28;;;15.91;59.20
53270;BME280;39159;45.634;9.420;2023-04-19T07:15:40;98843.28;;;16.06;57.76
53270;BME280;39159;45.634;9.420;2023-04-19T07:18:05;98843.50;;;16.01;57.68
53270;BME280;39159;45.634;9.420;2023-04-19T07:20:31;98842.81;;;16.04;58.13
53270;BME280;39159;45.634;9.420;2023-04-19T07:23:00;98840.84;;;16.16;57.33
53270;BME280;39159;45.634;9.420;2023-04-19T07:25:25;98839.97;;;16.41;56.65
53270;BME280;39159;45.634;9.420;2023-04-19T07:27:52;98835.03;;;16.34;55.62
53270;BME280;39159;45.634;9.420;2023-04-19T07:30:19;98828.25;;;16.44;55.15
53270;BME280;39159;45.634;9.420;2023-04-19T07:32:44;98831.00;;;16.44;54.63
53270;BME280;39159;45.634;9.420;2023-04-19T07:35:10;98834.03;;;16.39;53.63
53270;BME280;39159;45.634;9.420;2023-04-19T07:37:36;98832.38;;;16.50;53.39
53270;BME280;39159;45.634;9.420;2023-04-19T07:40:02;98831.09;;;16.75;50.74
53270;BME280;39159;45.634;9.420;2023-04-19T07:42:29;98824.59;;;16.96;50.21
53270;BME280;39159;45.634;9.420;2023-04-19T07:44:55;98831.88;;;16.88;49.12
53270;BME280;39159;45.634;9.420;2023-04-19T07:47:20;98823.63;;;17.04;49.55
53270;BME280;39159;45.634;9.420;2023-04-19T07:49:46;98819.28;;;17.19;49.68
53270;BME280;39159;45.634;9.420;2023-04-19T07:52:11;98820.63;;;17.41;49.09
53270;BME280;39159;45.634;9.420;2023-04-19T07:54:37;98817.31;;;17.51;48.33
53270;BME280;39159;45.634;9.420;2023-04-19T07:57:03;98816.97;;;17.53;47.72
53270;BME280;39159;45.634;9.420;2023-04-19T07:59:29;98820.41;;;17.66;48.92
53270;BME280;39159;45.634;9.420;2023-04-19T08:01:57;98822.41;;;18.00;48.25
53270;BME280;39159;45.634;9.420;2023-04-19T08:04:23;98813.47;;;17.88;48.03
53270;BME280;39159;45.634;9.420;2023-04-19T08:06:48;98814.06;;;17.97;48.16
53270;BME280;39159;45.634;9.420;2023-04-19T08:09:14;98821.97;;;17.98;47.79
53270;BME280;39159;45.634;9.420;2023-04-19T08:11:41;98822.22;;;18.09;46.93
53270;BME280;39159;45.634;9.420;2023-04-19T08:14:07;98820.69;;;18.31;47.31
53270;BME280;39159;45.634;9.420;2023-04-19T08:16:32;98810.41;;;18.48;47.20
53270;BME280;39159;45.634;9.420;2023-04-19T08:18:58;98810.44;;;18.51;46.93
53270;BME280;39159;45.634;9.420;2023-04-19T08:21:24;98818.38;;;18.53;47.51
53270;BME280;39159;45.634;9.420;2023-04-19T08:23:49;98809.56;;;18.47;46.40
53270;BME280;39159;45.634;9.420;2023-04-19T08:26:14;98810.09;;;18.72;47.08
53270;BME280;39159;45.634;9.420;2023-04-19T08:28:40;98806.25;;;19.00;46.83
53270;BME280;39159;45.634;9.420;2023-04-19T08:31:05;98804.53;;;19.38;45.03
53270;BME280;39159;45.634;9.420;2023-04-19T08:33:34;98805.22;;;19.31;45.14
53270;BME280;39159;45.634;9.420;2023-04-19T08:36:00;98799.69;;;19.08;45.12
53270;BME280;39159;45.634;9.420;2023-04-19T08:38:25;98801.16;;;19.02;44.53
53270;BME280;39159;45.634;9.420;2023-04-19T08:40:52;98796.38;;;18.99;44.41
53270;BME280;39159;45.634;9.420;2023-04-19T08:43:19;98798.16;;;19.11;45.35
53270;BME280;39159;45.634;9.420;2023-04-19T08:45:49;98796.78;;;18.78;45.09
53270;BME280;39159;45.634;9.420;2023-04-19T08:48:15;98791.00;;;18.67;46.61
53270;BME280;39159;45.634;9.420;2023-04-19T08:50:41;98794.53;;;18.83;46.53
53270;BME280;39159;45.634;9.420;2023-04-19T08:53:10;98795.03;;;19.12;46.03
53270;BME280;39159;45.634;9.420;2023-04-19T08:55:37;98794.84;;;19.48;45.17
53270;BME280;39159;45.634;9.420;2023-04-19T08:58:03;98789.41;;;19.55;45.37
53270;BME280;39159;45.634;9.420;2023-04-19T09:00:30;98785.06;;;19.80;45.10
53270;BME280;39159;45.634;9.420;2023-04-19T09:02:56;98778.72;;;19.80;45.68
53270;BME280;39159;45.634;9.420;2023-04-19T09:05:23;98771.59;;;19.79;43.97
53270;BME280;39159;45.634;9.420;2023-04-19T09:07:48;98778.72;;;19.80;43.70
53270;BME280;39159;45.634;9.420;2023-04-19T09:10:16;98775.31;;;19.90;44.01
53270;BME280;39159;45.634;9.420;2023-04-19T09:12:58;98772.84;;;19.85;44.16
53270;BME280;39159;45.634;9.420;2023-04-19T09:15:38;98767.19;;;20.04;44.12
53270;BME280;39159;45.634;9.420;2023-04-19T09:18:06;98766.06;;;20.09;42.96
53270;BME280;39159;45.634;9.420;2023-04-19T09:20:37;98757.16;;;20.26;43.22
53270;BME280;39159;45.634;9.420;2023-04-19T09:23:04;98750.41;;;20.24;43.74
53270;BME280;39159;45.634;9.420;2023-04-19T09:25:30;98752.00;;;20.25;43.13
53270;BME280;39159;45.634;9.420;2023-04-19T09:28:09;98753.19;;;20.24;44.15
53270;BME280;39159;45.634;9.420;2023-04-19T09:30:36;98749.19;;;20.21;44.82
53270;BME280;39159;45.634;9.420;2023-04-19T09:33:01;98747.84;;;20.42;44.05
53270;BME280;39159;45.634;9.420;2023-04-19T09:35:47;98745.22;;;20.19;43.75
53270;BME280;39159;45.634;9.420;2023-04-19T09:38:14;98740.97;;;20.28;43.33
53270;BME280;39159;45.634;9.420;2023-04-19T09:40:40;98741.97;;;20.13;42.93
53270;BME280;39159;45.634;9.420;2023-04-19T09:43:06;98731.38;;;20.22;43.23
53270;BME280;39159;45.634;9.420;2023-04-19T09:45:42;98736.72;;;20.38;43.66
53270;BME280;39159;45.634;9.420;2023-04-19T09:48:08;98728.78;;;20.74;43.05
53270;BME280;39159;45.634;9.420;2023-04-19T09:50:35;98717.19;;;21.06;42.20
53270;BME280;39159;45.634;9.420;2023-04-19T09:53:02;98722.63;;;20.91;41.12
53270;BME280;39159;45.634;9.420;2023-04-19T09:55:28;98718.31;;;20.98;40.90
53270;BME280;39159;45.634;9.420;2023-04-19T09:57:54;98709.94;;;20.90;40.63
53270;BME280;39159;45.634;9.420;2023-04-19T10:00:21;98712.47;;;21.10;40.48
53270;BME280;39159;45.634;9.420;2023-04-19T10:02:50;98703.41;;;21.17;40.97
53270;BME280;39159;45.634;9.420;2023-04-19T10:05:20;98705.91;;;20.84;41.80
53270;BME280;39159;45.634;9.420;2023-04-19T10:07:48;98701.84;;;21.19;41.52
53270;BME280;39159;45.634;9.420;2023-04-19T10:10:15;98699.63;;;21.43;41.80
53270;BME280;39159;45.634;9.420;2023-04-19T10:12:41;98691.41;;;21.57;40.82
53270;BME280;39159;45.634;9.420;2023-04-19T10:15:10;98689.09;;;21.73;41.08
53270;BME280;39159;45.634;9.420;2023-04-19T10:17:37;98687.50;;;21.69;41.23
53270;BME280;39159;45.634;9.420;2023-04-19T10:20:07;98693.47;;;21.71;40.39
53270;BME280;39159;45.634;9.420;2023-04-19T10:22:35;98681.94;;;21.69;40.63
53270;BME280;39159;45.634;9.420;2023-04-19T10:25:13;98687.13;;;21.74;40.35
53270;BME280;39159;45.634;9.420;2023-04-19T10:27:43;98680.03;;;21.87;40.94
53270;BME280;39159;45.634;9.420;2023-04-19T10:30:18;98676.88;;;21.89;39.87
53270;BME280;39159;45.634;9.420;2023-04-19T10:32:46;98674.81;;;21.68;40.46
53270;BME280;39159;45.634;9.420;2023-04-19T10:35:27;98669.19;;;21.57;41.28
53270;BME280;39159;45.634;9.420;2023-04-19T10:38:09;98670.63;;;22.13;42.10
53270;BME280;39159;45.634;9.420;2023-04-19T10:43:24;98665.75;;;21.89;40.18
53270;BME280;39159;45.634;9.420;2023-04-19T10:45:50;98657.31;;;21.60;40.78
53270;BME280;39159;45.634;9.420;2023-04-19T10:51:09;98654.00;;;21.40;40.36
53270;BME280;39159;45.634;9.420;2023-04-19T10:53:52;98648.03;;;20.38;42.87
53270;BME280;39159;45.634;9.420;2023-04-19T11:02:25;98622.19;;;22.14;38.35
53270;BME280;39159;45.634;9.420;2023-04-19T11:07:17;98612.72;;;22.76;37.25
53270;BME280;39159;45.634;9.420;2023-04-19T11:09:46;98606.75;;;22.85;36.86
53270;BME280;39159;45.634;9.420;2023-04-19T11:12:17;98605.94;;;23.10;36.76
53270;BME280;39159;45.634;9.420;2023-04-19T11:14:44;98596.34;;;23.36;35.38
53270;BME280;39159;45.634;9.420;2023-04-19T11:22:36;98591.56;;;23.40;33.76
53270;BME280;39159;45.634;9.420;2023-04-19T11:27:35;98579.72;;;22.79;35.61
53270;BME280;39159;45.634;9.420;2023-04-19T11:33:01;98569.44;;;22.50;35.80
53270;BME280;39159;45.634;9.420;2023-04-19T11:35:28;98567.81;;;22.17;37.38
53270;BME280;39159;45.634;9.420;2023-04-19T11:37:55;98562.28;;;22.35;37.43
53270;BME280;39159;45.634;9.420;2023-04-19T11:40:23;98563.47;;;22.48;37.98
53270;BME280;39159;45.634;9.420;2023-04-19T11:42:58;98543.59;;;22.32;37.58
53270;BME280;39159;45.634;9.420;2023-04-19T11:45:36;98551.13;;;22.56;38.98
53270;BME280;39159;45.634;9.420;2023-04-19T11:48:06;98537.19;;;23.07;36.17
53270;BME280;39159;45.634;9.420;2023-04-19T11:50:40;98542.81;;;22.49;37.04
53270;BME280;39159;45.634;9.420;2023-04-19T11:53:19;98532.47;;;22.32;37.47
53270;BME280;39159;45.634;9.420;2023-04-19T12:00:48;98523.28;;;23.00;36.81
53270;BME280;39159;45.634;9.420;2023-04-19T12:03:14;98517.34;;;23.01;36.58
53270;BME280;39159;45.634;9.420;2023-04-19T12:05:51;98507.72;;;23.20;36.23
53270;BME280;39159;45.634;9.420;2023-04-19T12:08:16;98522.41;;;23.28;35.32
53270;BME280;39159;45.634;9.420;2023-04-19T12:10:54;98507.25;;;23.40;36.37
53270;BME280;39159;45.634;9.420;2023-04-19T12:13:21;98493.94;;;23.69;34.57
53270;BME280;39159;45.634;9.420;2023-04-19T12:15:46;98493.56;;;23.63;33.98
53270;BME280;39159;45.634;9.420;2023-04-19T12:18:13;98496.22;;;23.14;35.01
53270;BME280;39159;45.634;9.420;2023-04-19T12:20:44;98496.63;;;23.09;36.05
53270;BME280;39159;45.634;9.420;2023-04-19T12:23:10;98495.91;;;22.73;35.97
53270;BME280;39159;45.634;9.420;2023-04-19T12:25:38;98493.56;;;22.53;36.91
53270;BME280;39159;45.634;9.420;2023-04-19T12:28:04;98478.09;;;22.31;36.86
53270;BME280;39159;45.634;9.420;2023-04-19T12:30:30;98481.69;;;22.28;37.78
53270;BME280;39159;45.634;9.420;2023-04-19T12:32:55;98478.41;;;22.76;37.68
53270;BME280;39159;45.634;9.420;2023-04-19T12:35:25;98471.59;;;23.06;38.15
53270;BME280;39159;45.634;9.420;2023-04-19T12:37:52;98465.38;;;23.54;34.96
53270;BME280;39159;45.634;9.420;2023-04-19T12:40:18;98460.13;;;23.70;33.83
53270;BME280;39159;45.634;9.420;2023-04-19T12:42:44;98459.63;;;23.86;33.65
53270;BME280;39159;45.634;9.420;2023-04-19T12:45:10;98465.47;;;23.40;33.20
53270;BME280;39159;45.634;9.420;2023-04-19T12:47:36;98458.09;;;22.93;33.97
53270;BME280;39159;45.634;9.420;2023-04-19T12:50:02;98452.97;;;22.81;34.75
53270;BME280;39159;45.634;9.420;2023-04-19T12:52:27;98459.66;;;23.05;35.23
53270;BME280;39159;45.634;9.420;2023-04-19T12:54:53;98450.06;;;23.17;34.20
53270;BME280;39159;45.634;9.420;2023-04-19T12:57:18;98444.72;;;23.51;34.72
53270;BME280;39159;45.634;9.420;2023-04-19T12:59:43;98435.78;;;23.74;32.71
53270;BME280;39159;45.634;9.420;2023-04-19T13:02:09;98428.66;;;23.73;33.26
53270;BME280;39159;45.634;9.420;2023-04-19T13:04:35;98427.81;;;23.13;34.55
53270;BME280;39159;45.634;9.420;2023-04-19T13:07:01;98420.16;;;23.32;34.99
53270;BME280;39159;45.634;9.420;2023-04-19T13:09:27;98419.75;;;23.33;33.83
53270;BME280;39159;45.634;9.420;2023-04-19T13:11:58;98414.63;;;23.25;33.59
53270;BME280;39159;45.634;9.420;2023-04-19T13:14:27;98406.03;;;22.87;34.56
53270;BME280;39159;45.634;9.420;2023-04-19T13:16:53;98403.25;;;22.83;34.20
53270;BME280;39159;45.634;9.420;2023-04-19T13:19:19;98406.81;;;22.94;34.54
53270;BME280;39159;45.634;9.420;2023-04-19T13:21:45;98397.66;;;22.97;34.36
53270;BME280;39159;45.634;9.420;2023-04-19T13:24:10;98390.56;;;22.82;35.20
53270;BME280;39159;45.634;9.420;2023-04-19T13:26:36;98391.63;;;23.10;34.22